sensor_id;sensor_type;location;lat;lon;timestamp;pressure;altitude;pressure_sealevel;temperature;humidity
6694;BME280;3384;42.628;23.380;2023-08-30T00:01:34;93325.47;;;21.44;100.00
6694;BME280;3384;42.628;23.380;2023-08-30T00:04:02;93325.06;;;21.59;100.00
6694;BME280;3384;42.628;23.380;2023-08-30T00:06:30;93325.09;;;21.63;100.00
6694;BME280;3384;42.628;23.380;2023-08-30T00:08:57;93325.84;;;21.67;100.00
6694;BME280;3384;42.628;23.380;2023-08-30T00:11:24;93317.69;;;21.53;100.00
6694;BME280;3384;42.628;23.380;2023-08-30T00:13:50;93314.94;;;21.88;100.00
6694;BME280;3384;42.628;23.380;2023-08-30T00:16:17;93303.63;;;21.65;100.00
6694;BME280;3384;42.628;23.380;2023-08-30T00:18:44;93312.22;;;21.78;100.00
6694;BME280;3384;42.628;23.380;2023-08-30T00:21:12;93314.47;;;22.11;100.00
6694;BME280;3384;42.628;23.380;2023-08-30T00:23:39;93320.00;;;21.90;100.00
6694;BME280;3384;42.628;23.380;2023-08-30T00:26:06;93320.41;;;21.42;100.00
6694;BME280;3384;42.628;23.380;2023-08-30T00:28:32;93305.22;;;21.31;100.00
6694;BME280;3384;42.628;23.380;2023-08-30T00:30:59;93311.84;;;21.58;100.00
6694;BME280;3384;42.628;23.380;2023-08-30T00:33:26;93307.94;;;21.38;100.00
6694;BME280;3384;42.628;23.380;2023-08-30T00:35:57;93313.41;;;21.27;100.00
6694;BME280;3384;42.628;23.380;2023-08-30T00:38:25;93313.41;;;21.20;100.00
6694;BME280;3384;42.628;23.380;2023-08-30T00:40:52;93329.34;;;21.04;100.00
6694;BME280;3384;42.628;23.380;2023-08-30T00:43:19;93332.88;;;21.29;100.00
6694;BME280;3384;42.628;23.380;2023-08-30T00:45:47;93329.78;;;21.20;100.00
6694;BME280;3384;42.628;23.380;2023-08-30T00:48:14;93325.03;;;20.86;100.00
6694;BME280;3384;42.628;23.380;2023-08-30T00:50:42;93316.91;;;20.96;100.00
6694;BME280;3384;42.628;23.380;2023-08-30T00:53:10;93310.63;;;20.89;100.00
6694;BME280;3384;42.628;23.380;2023-08-30T00:55:39;93321.50;;;20.82;100.00
6694;BME280;3384;42.628;23.380;2023-08-30T00:58:07;93320.41;;;21.07;100.00
6694;BME280;3384;42.628;23.380;2023-08-30T01:00:34;93320.81;;;21.16;100.00
6694;BME280;3384;42.628;23.380;2023-08-30T01:03:01;93340.28;;;21.50;100.00
6694;BME280;3384;42.628;23.380;2023-08-30T01:05:28;93341.03;;;21.29;100.00
6694;BME280;3384;42.628;23.380;2023-08-30T01:07:54;93351.94;;;21.50;100.00
6694;BME280;3384;42.628;23.380;2023-08-30T01:10:25;93339.50;;;21.39;100.00
6694;BME280;3384;42.628;23.380;2023-08-30T01:12:59;93349.22;;;21.57;100.00
6694;BME280;3384;42.628;23.380;2023-08-30T01:15:30;93348.84;;;21.17;100.00
6694;BME280;3384;42.628;23.380;2023-08-30T01:17:57;93352.66;;;20.91;100.00
6694;BME280;3384;42.628;23.380;2023-08-30T01:20:26;93359.66;;;20.89;100.00
6694;BME280;3384;42.628;23.380;2023-08-30T01:22:59;93356.94;;;20.85;100.00
6694;BME280;3384;42.628;23.380;2023-08-30T01:25:43;93358.56;;;21.14;100.00
6694;BME280;3384;42.628;23.380;2023-08-30T01:28:16;93337.47;;;20.76;100.00
6694;BME280;3384;42.628;23.380;2023-08-30T01:30:46;93334.75;;;20.90;100.00
6694;BME280;3384;42.628;23.380;2023-08-30T01:33:14;93334.44;;;21.34;100.00
6694;BME280;3384;42.628;23.380;2023-08-30T01:35:41;93347.28;;;21.58;100.00
6694;BME280;3384;42.628;23.380;2023-08-30T01:38:08;93350.81;;;21.44;100.00
6694;BME280;3384;42.628;23.380;2023-08-30T01:40:38;93365.19;;;21.17;100.00
6694;BME280;3384;42.628;23.380;2023-08-30T01:43:07;93369.38;;;20.90;100.00
6694;BME280;3384;42.628;23.380;2023-08-30T01:45:38;93341.03;;;20.98;100.00
6694;BME280;3384;42.628;23.380;2023-08-30T01:48:07;93341.28;;;20.51;100.00
6694;BME280;3384;42.628;23.380;2023-08-30T01:50:36;93348.72;;;20.68;100.00
6694;BME280;3384;42.628;23.380;2023-08-30T01:53:05;93353.00;;;20.69;100.00
6694;BME280;3384;42.628;23.380;2023-08-30T01:55:34;93343.19;;;20.36;100.00
6694;BME280;3384;42.628;23.380;2023-08-30T01:58:02;93348.28;;;20.55;100.00
6694;BME280;3384;42.628;23.380;2023-08-30T02:00:29;93353.09;;;20.01;100.00
6694;BME280;3384;42.628;23.380;2023-08-30T02:02:57;93348.16;;;20.20;100.00
6694;BME280;3384;42.628;23.380;2023-08-30T02:05:24;93348.50;;;20.12;100.00
6694;BME280;3384;42.628;23.380;2023-08-30T02:07:55;93345.09;;;20.32;100.00
6694;BME280;3384;42.628;23.380;2023-08-30T02:10:26;93339.69;;;20.36;100.00
6694;BME280;3384;42.628;23.380;2023-08-30T02:12:55;93340.38;;;20.22;100.00
6694;BME280;3384;42.628;23.380;2023-08-30T02:15:25;93349.41;;;20.44;100.00
6694;BME280;3384;42.628;23.380;2023-08-30T02:17:53;93345.97;;;20.50;100.00
6694;BME280;3384;42.628;23.380;2023-08-30T02:20:23;93332.72;;;20.49;100.00
6694;BME280;3384;42.628;23.380;2023-08-30T02:22:52;93333.34;;;20.11;100.00
6694;BME280;3384;42.628;23.380;2023-08-30T02:25:19;93327.59;;;20.26;100.00
6694;BME280;3384;42.628;23.380;2023-08-30T02:27:49;93323.59;;;20.10;100.00
6694;BME280;3384;42.628;23.380;2023-08-30T02:30:16;93327.97;;;20.25;100.00
6694;BME280;3384;42.628;23.380;2023-08-30T02:32:42;93328.03;;;20.39;100.00
6694;BME280;3384;42.628;23.380;2023-08-30T02:35:09;93337.31;;;20.27;100.00
6694;BME280;3384;42.628;23.380;2023-08-30T02:37:37;93329.91;;;20.24;100.00
6694;BME280;3384;42.628;23.380;2023-08-30T02:40:06;93331.09;;;20.34;100.00
6694;BME280;3384;42.628;23.380;2023-08-30T02:42:33;93336.94;;;20.29;100.00
6694;BME280;3384;42.628;23.380;2023-08-30T02:45:00;93339.63;;;20.22;100.00
6694;BME280;3384;42.628;23.380;2023-08-30T02:47:27;93331.84;;;20.20;100.00
6694;BME280;3384;42.628;23.380;2023-08-30T02:49:53;93329.56;;;20.40;100.00
6694;BME280;3384;42.628;23.380;2023-08-30T02:52:20;93326.81;;;20.33;100.00
6694;BME280;3384;42.628;23.380;2023-08-30T02:54:48;93318.63;;;20.26;100.00
6694;BME280;3384;42.628;23.380;2023-08-30T02:57:15;93325.50;;;20.06;100.00
6694;BME280;3384;42.628;23.380;2023-08-30T02:59:42;93326.78;;;20.22;100.00
6694;BME280;3384;42.628;23.380;2023-08-30T03:02:08;93326.78;;;20.22;100.00
6694;BME280;3384;42.628;23.380;2023-08-30T03:04:35;93324.44;;;20.17;100.00
6694;BME280;3384;42.628;23.380;2023-08-30T03:07:04;93336.88;;;20.15;100.00
6694;BME280;3384;42.628;23.380;2023-08-30T03:09:30;93333.97;;;19.87;100.00
6694;BME280;3384;42.628;23.380;2023-08-30T03:11:58;93326.19;;;19.89;100.00
6694;BME280;3384;42.628;23.380;2023-08-30T03:14:25;93331.56;;;19.75;100.00
6694;BME280;3384;42.628;23.380;2023-08-30T03:16:52;93324.94;;;19.69;100.00
6694;BME280;3384;42.628;23.380;2023-08-30T03:19:19;93325.31;;;19.71;100.00
6694;BME280;3384;42.628;23.380;2023-08-30T03:21:45;93337.03;;;19.78;100.00
6694;BME280;3384;42.628;23.380;2023-08-30T03:24:12;93329.50;;;19.54;100.00
6694;BME280;3384;42.628;23.380;2023-08-30T03:26:42;93328.41;;;19.66;100.00
6694;BME280;3384;42.628;23.380;2023-08-30T03:29:10;93325.66;;;19.59;100.00
6694;BME280;3384;42.628;23.380;2023-08-30T03:31:37;93325.38;;;19.78;100.00
6694;BME280;3384;42.628;23.380;2023-08-30T03:34:04;93322.25;;;19.76;100.00
6694;BME280;3384;42.628;23.380;2023-08-30T03:36:31;93312.94;;;19.80;100.00
6694;BME280;3384;42.628;23.380;2023-08-30T03:38:57;93318.06;;;19.92;100.00
6694;BME280;3384;42.628;23.380;2023-08-30T03:41:24;93301.31;;;19.83;100.00
6694;BME280;3384;42.628;23.380;2023-08-30T03:43:51;93301.31;;;19.83;100.00
6694;BME280;3384;42.628;23.380;2023-08-30T03:46:19;93303.94;;;19.69;100.00
6694;BME280;3384;42.628;23.380;2023-08-30T03:48:46;93304.47;;;19.92;100.00
6694;BME280;3384;42.628;23.380;2023-08-30T03:51:12;93305.03;;;19.58;100.00
6694;BME280;3384;42.628;23.380;2023-08-30T03:53:39;93303.41;;;19.43;100.00
6694;BME280;3384;42.628;23.380;2023-08-30T03:56:06;93309.16;;;19.34;100.00
6694;BME280;3384;42.628;23.380;2023-08-30T03:58:33;93313.38;;;19.28;100.00
6694;BME280;3384;42.628;23.380;2023-08-30T04:00:59;93320.06;;;19.38;100.00
6694;BME280;3384;42.628;23.380;2023-08-30T04:03:31;93322.53;;;19.57;100.00
6694;BME280;3384;42.628;23.380;2023-08-30T04:05:57;93341.53;;;19.57;100.00
6694;BME280;3384;42.628;23.380;2023-08-30T04:08:24;93344.25;;;19.53;100.00
6694;BME280;3384;42.628;23.380;2023-08-30T04:10:53;93337.00;;;19.75;100.00
6694;BME280;3384;42.628;23.380;2023-08-30T04:13:19;93318.63;;;19.58;100.00
6694;BME280;3384;42.628;23.380;2023-08-30T04:15:47;93326.84;;;19.65;100.00
6694;BME280;3384;42.628;23.380;2023-08-30T04:18:14;93333.03;;;19.62;100.00
6694;BME280;3384;42.628;23.380;2023-08-30T04:20:45;93348.75;;;19.89;100.00
6694;BME280;3384;42.628;23.380;2023-08-30T04:23:12;93350.38;;;20.04;100.00
6694;BME280;3384;42.628;23.380;2023-08-30T04:25:39;93349.97;;;19.99;100.00
6694;BME280;3384;42.628;23.380;2023-08-30T04:28:06;93356.91;;;19.32;100.00
6694;BME280;3384;42.628;23.380;2023-08-30T04:30:35;93370.22;;;19.51;100.00
6694;BME280;3384;42.628;23.380;2023-08-30T04:33:03;93375.72;;;19.58;100.00
6694;BME280;3384;42.628;23.380;2023-08-30T04:35:30;93375.19;;;19.96;100.00
6694;BME280;3384;42.628;23.380;2023-08-30T04:38:02;93380.66;;;20.03;100.00
6694;BME280;3384;42.628;23.380;2023-08-30T04:40:29;93381.03;;;19.98;100.00
6694;BME280;3384;42.628;23.380;2023-08-30T04:42:59;93396.09;;;19.85;100.00
6694;BME280;3384;42.628;23.380;2023-08-30T04:45:26;93397.59;;;20.33;100.00
6694;BME280;3384;42.628;23.380;2023-08-30T04:47:53;93401.03;;;20.23;100.00
6694;BME280;3384;42.628;23.380;2023-08-30T04:50:20;93393.75;;;20.48;100.00
6694;BME280;3384;42.628;23.380;2023-08-30T04:52:48;93398.75;;;20.35;100.00
6694;BME280;3384;42.628;23.380;2023-08-30T04:55:16;93399.63;;;20.53;100.00
6694;BME280;3384;42.628;23.380;2023-08-30T04:57:43;93404.69;;;20.51;100.00
6694;BME280;3384;42.628;23.380;2023-08-30T05:00:11;93399.03;;;20.13;100.00
6694;BME280;3384;42.628;23.380;2023-08-30T05:02:38;93394.41;;;20.24;100.00
6694;BME280;3384;42.628;23.380;2023-08-30T05:05:06;93395.56;;;20.16;100.00
6694;BME280;3384;42.628;23.380;2023-08-30T05:07:33;93396.13;;;20.56;100.00
6694;BME280;3384;42.628;23.380;2023-08-30T05:10:00;93403.41;;;20.28;100.00
6694;BME280;3384;42.628;23.380;2023-08-30T05:12:28;93401.03;;;20.19;100.00
6694;BME280;3384;42.628;23.380;2023-08-30T05:14:54;93395.69;;;20.44;100.00
6694;BME280;3384;42.628;23.380;2023-08-30T05:17:21;93407.34;;;20.41;100.00
6694;BME280;3384;42.628;23.380;2023-08-30T05:19:48;93397.31;;;20.62;100.00
6694;BME280;3384;42.628;23.380;2023-08-30T05:22:15;93405.53;;;19.98;100.00
6694;BME280;3384;42.628;23.380;2023-08-30T05:24:42;93394.91;;;19.79;100.00
6694;BME280;3384;42.628;23.380;2023-08-30T05:27:08;93407.69;;;20.29;100.00
6694;BME280;3384;42.628;23.380;2023-08-30T05:29:38;93405.38;;;20.34;100.00
6694;BME280;3384;42.628;23.380;2023-08-30T05:32:05;93410.25;;;20.08;100.00
6694;BME280;3384;42.628;23.380;2023-08-30T05:34:32;93405.47;;;19.91;100.00
6694;BME280;3384;42.628;23.380;2023-08-30T05:36:59;93408.50;;;19.79;100.00
6694;BME280;3384;42.628;23.380;2023-08-30T05:39:25;93406.31;;;20.02;100.00
6694;BME280;3384;42.628;23.380;2023-08-30T05:41:52;93413.94;;;20.40;100.00
6694;BME280;3384;42.628;23.380;2023-08-30T05:44:19;93412.78;;;20.41;100.00
6694;BME280;3384;42.628;23.380;2023-08-30T05:46:47;93407.72;;;20.39;100.00
6694;BME280;3384;42.628;23.380;2023-08-30T05:49:14;93414.78;;;20.51;100.00
6694;BME280;3384;42.628;23.380;2023-08-30T05:51:41;93422.53;;;20.45;100.00
6694;BME280;3384;42.628;23.380;2023-08-30T05:54:14;93409.59;;;20.25;100.00
6694;BME280;3384;42.628;23.380;2023-08-30T05:56:40;93401.91;;;20.41;100.00
6694;BME280;3384;42.628;23.380;2023-08-30T05:59:08;93401.28;;;20.86;100.00
6694;BME280;3384;42.628;23.380;2023-08-30T06:01:34;93412.13;;;20.68;100.00
6694;BME280;3384;42.628;23.380;2023-08-30T06:04:03;93417.59;;;20.72;100.00
6694;BME280;3384;42.628;23.380;2023-08-30T06:06:30;93409.06;;;20.87;100.00
6694;BME280;3384;42.628;23.380;2023-08-30T06:09:00;93409.16;;;21.08;100.00
6694;BME280;3384;42.628;23.380;2023-08-30T06:11:26;93405.69;;;21.22;100.00
6694;BME280;3384;42.628;23.380;2023-08-30T06:13:56;93400.63;;;21.17;100.00
6694;BME280;3384;42.628;23.380;2023-08-30T06:16:24;93402.19;;;21.28;100.00
6694;BME280;3384;42.628;23.380;2023-08-30T06:18:51;93402.97;;;21.29;100.00
6694;BME280;3384;42.628;23.380;2023-08-30T06:21:21;93409.56;;;21.17;100.00
6694;BME280;3384;42.628;23.380;2023-08-30T06:23:47;93412.72;;;21.30;100.00
6694;BME280;3384;42.628;23.380;2023-08-30T06:26:15;93415.44;;;21.23;100.00
6694;BME280;3384;42.628;23.380;2023-08-30T06:28:42;93414.66;;;21.19;100.00
6694;BME280;3384;42.628;23.380;2023-08-30T06:31:12;93415.44;;;21.44;100.00
6694;BME280;3384;42.628;23.380;2023-08-30T06:33:38;93415.84;;;21.71;100.00
6694;BME280;3384;42.628;23.380;2023-08-30T06:36:07;93417.81;;;21.59;100.00
6694;BME280;3384;42.628;23.380;2023-08-30T06:38:42;93414.28;;;21.38;100.00
6694;BME280;3384;42.628;23.380;2023-08-30T06:41:09;93422.84;;;21.47;100.00
6694;BME280;3384;42.628;23.380;2023-08-30T06:43:37;93417.81;;;21.49;100.00
6694;BME280;3384;42.628;23.380;2023-08-30T06:46:04;93407.28;;;21.62;100.00
6694;BME280;3384;42.628;23.380;2023-08-30T06:48:30;93417.81;;;21.67;100.00
6694;BME280;3384;42.628;23.380;2023-08-30T06:50:59;93420.13;;;21.43;100.00
6694;BME280;3384;42.628;23.380;2023-08-30T06:53:26;93413.50;;;21.62;100.00
6694;BME280;3384;42.628;23.380;2023-08-30T06:55:58;93412.00;;;21.86;100.00
6694;BME280;3384;42.628;23.380;2023-08-30T06:58:25;93419.00;;;21.87;100.00
6694;BME280;3384;42.628;23.380;2023-08-30T07:00:52;93418.59;;;21.46;100.00
6694;BME280;3384;42.628;23.380;2023-08-30T07:03:20;93428.72;;;21.49;100.00
6694;BME280;3384;42.628;23.380;2023-08-30T07:05:47;93422.50;;;21.77;100.00
6694;BME280;3384;42.628;23.380;2023-08-30T07:08:14;93426.00;;;21.98;100.00
6694;BME280;3384;42.628;23.380;2023-08-30T07:10:41;93413.94;;;21.92;100.00
6694;BME280;3384;42.628;23.380;2023-08-30T07:13:09;93408.47;;;21.99;100.00
6694;BME280;3384;42.628;23.380;2023-08-30T07:15:38;93411.94;;;22.17;100.00
6694;BME280;3384;42.628;23.380;2023-08-30T07:18:05;93411.56;;;22.22;100.00
6694;BME280;3384;42.628;23.380;2023-08-30T07:20:33;93420.16;;;22.03;100.00
6694;BME280;3384;42.628;23.380;2023-08-30T07:23:00;93421.31;;;22.09;100.00
6694;BME280;3384;42.628;23.380;2023-08-30T07:25:27;93417.34;;;22.38;100.00
6694;BME280;3384;42.628;23.380;2023-08-30T07:27:54;93413.09;;;22.20;100.00
6694;BME280;3384;42.628;23.380;2023-08-30T07:30:22;93411.56;;;22.22;100.00
6694;BME280;3384;42.628;23.380;2023-08-30T07:32:49;93417.03;;;22.08;100.00
6694;BME280;3384;42.628;23.380;2023-08-30T07:35:16;93423.25;;;22.26;100.00
6694;BME280;3384;42.628;23.380;2023-08-30T07:37:43;93419.22;;;22.69;100.00
6694;BME280;3384;42.628;23.380;2023-08-30T07:40:10;93421.19;;;22.69;100.00
6694;BME280;3384;42.628;23.380;2023-08-30T07:42:37;93427.00;;;22.81;100.00
6694;BME280;3384;42.628;23.380;2023-08-30T07:45:05;93407.59;;;22.51;100.00
6694;BME280;3384;42.628;23.380;2023-08-30T07:47:33;93404.31;;;22.88;100.00
6694;BME280;3384;42.628;23.380;2023-08-30T07:50:00;93401.69;;;22.70;100.00
6694;BME280;3384;42.628;23.380;2023-08-30T07:52:26;93417.56;;;22.96;100.00
6694;BME280;3384;42.628;23.380;2023-08-30T07:54:53;93405.03;;;22.99;100.00
6694;BME280;3384;42.628;23.380;2023-08-30T07:57:20;93416.84;;;23.54;100.00
6694;BME280;3384;42.628;23.380;2023-08-30T07:59:47;93422.09;;;23.27;100.00
6694;BME280;3384;42.628;23.380;2023-08-30T08:02:14;93418.19;;;23.32;98.34
6694;BME280;3384;42.628;23.380;2023-08-30T08:04:42;93410.34;;;23.34;97.80
6694;BME280;3384;42.628;23.380;2023-08-30T08:07:08;93416.44;;;22.83;100.00
6694;BME280;3384;42.628;23.380;2023-08-30T08:09:35;93408.97;;;22.98;100.00
6694;BME280;3384;42.628;23.380;2023-08-30T08:12:03;93407.25;;;23.21;98.37
6694;BME280;3384;42.628;23.380;2023-08-30T08:14:30;93408.81;;;23.29;98.49
6694;BME280;3384;42.628;23.380;2023-08-30T08:16:56;93425.16;;;23.40;96.09
6694;BME280;3384;42.628;23.380;2023-08-30T08:19:23;93410.13;;;23.65;95.36
6694;BME280;3384;42.628;23.380;2023-08-30T08:21:52;93424.19;;;23.67;95.67
6694;BME280;3384;42.628;23.380;2023-08-30T08:24:20;93408.75;;;23.91;94.34
6694;BME280;3384;42.628;23.380;2023-08-30T08:26:47;93406.09;;;23.80;97.94
6694;BME280;3384;42.628;23.380;2023-08-30T08:29:13;93422.03;;;23.92;98.36
6694;BME280;3384;42.628;23.380;2023-08-30T08:31:40;93415.72;;;24.02;96.77
6694;BME280;3384;42.628;23.380;2023-08-30T08:34:09;93413.03;;;23.92;96.38
6694;BME280;3384;42.628;23.380;2023-08-30T08:36:37;93420.22;;;23.75;94.76
6694;BME280;3384;42.628;23.380;2023-08-30T08:39:10;93426.59;;;23.58;97.22
6694;BME280;3384;42.628;23.380;2023-08-30T08:44:15;93416.00;;;24.12;100.00
6694;BME280;3384;42.628;23.380;2023-08-30T08:46:42;93425.03;;;24.08;100.00
6694;BME280;3384;42.628;23.380;2023-08-30T08:49:11;93415.13;;;24.22;100.00
6694;BME280;3384;42.628;23.380;2023-08-30T08:51:39;93410.66;;;23.97;95.93
6694;BME280;3384;42.628;23.380;2023-08-30T08:54:08;93404.44;;;23.97;97.51
6694;BME280;3384;42.628;23.380;2023-08-30T08:56:37;93414.72;;;24.27;97.87
6694;BME280;3384;42.628;23.380;2023-08-30T08:59:04;93414.25;;;24.35;94.96
6694;BME280;3384;42.628;23.380;2023-08-30T09:01:33;93415.59;;;24.13;98.00
6694;BME280;3384;42.628;23.380;2023-08-30T09:04:04;93411.50;;;24.35;93.89
6694;BME280;3384;42.628;23.380;2023-08-30T09:06:31;93408.94;;;24.55;96.27
6694;BME280;3384;42.628;23.380;2023-08-30T09:08:58;93418.81;;;24.45;89.58
6694;BME280;3384;42.628;23.380;2023-08-30T09:11:26;93409.34;;;24.53;84.88
6694;BME280;3384;42.628;23.380;2023-08-30T09:13:53;93422.25;;;24.53;84.81
6694;BME280;3384;42.628;23.380;2023-08-30T09:16:20;93415.31;;;24.45;83.76
6694;BME280;3384;42.628;23.380;2023-08-30T09:18:57;93405.47;;;24.51;86.01
6694;BME280;3384;42.628;23.380;2023-08-30T09:21:24;93414.81;;;24.53;85.88
6694;BME280;3384;42.628;23.380;2023-08-30T09:23:57;93407.69;;;24.63;83.73
6694;BME280;3384;42.628;23.380;2023-08-30T09:26:25;93411.03;;;24.44;85.29
6694;BME280;3384;42.628;23.380;2023-08-30T09:28:53;93401.97;;;24.06;89.42
6694;BME280;3384;42.628;23.380;2023-08-30T09:31:20;93415.19;;;24.15;91.37
6694;BME280;3384;42.628;23.380;2023-08-30T09:33:47;93419.97;;;24.48;86.40
6694;BME280;3384;42.628;23.380;2023-08-30T09:36:14;93410.31;;;24.33;87.29
6694;BME280;3384;42.628;23.380;2023-08-30T09:38:48;93419.34;;;24.33;86.96
6694;BME280;3384;42.628;23.380;2023-08-30T09:41:16;93416.81;;;24.08;89.50
6694;BME280;3384;42.628;23.380;2023-08-30T09:43:44;93411.97;;;24.27;88.95
6694;BME280;3384;42.628;23.380;2023-08-30T09:46:13;93405.66;;;24.30;88.07
6694;BME280;3384;42.628;23.380;2023-08-30T09:48:39;93397.94;;;24.21;87.79
6694;BME280;3384;42.628;23.380;2023-08-30T09:51:08;93395.97;;;24.59;86.07
6694;BME280;3384;42.628;23.380;2023-08-30T09:53:41;93397.38;;;24.74;86.92
6694;BME280;3384;42.628;23.380;2023-08-30T09:56:11;93395.28;;;24.85;88.42
6694;BME280;3384;42.628;23.380;2023-08-30T09:58:39;93388.44;;;25.00;84.20
6694;BME280;3384;42.628;23.380;2023-08-30T10:01:09;93389.50;;;25.09;83.88
6694;BME280;3384;42.628;23.380;2023-08-30T10:03:36;93385.41;;;25.21;86.25
6694;BME280;3384;42.628;23.380;2023-08-30T10:06:04;93381.84;;;25.24;85.17
6694;BME280;3384;42.628;23.380;2023-08-30T10:08:33;93376.69;;;25.56;83.36
6694;BME280;3384;42.628;23.380;2023-08-30T10:11:02;93389.53;;;25.36;83.89
6694;BME280;3384;42.628;23.380;2023-08-30T10:13:29;93384.88;;;25.33;83.12
6694;BME280;3384;42.628;23.380;2023-08-30T10:16:00;93383.28;;;25.62;81.91
6694;BME280;3384;42.628;23.380;2023-08-30T10:18:32;93378.84;;;25.68;82.83
6694;BME280;3384;42.628;23.380;2023-08-30T10:21:02;93380.78;;;25.71;81.75
6694;BME280;3384;42.628;23.380;2023-08-30T10:23:32;93388.13;;;25.51;79.90
6694;BME280;3384;42.628;23.380;2023-08-30T10:26:02;93382.50;;;25.35;79.50
6694;BME280;3384;42.628;23.380;2023-08-30T10:28:31;93377.38;;;25.07;82.17
6694;BME280;3384;42.628;23.380;2023-08-30T10:31:08;93373.34;;;25.15;83.60
6694;BME280;3384;42.628;23.380;2023-08-30T10:33:48;93373.34;;;25.45;83.09
6694;BME280;3384;42.628;23.380;2023-08-30T10:36:21;93373.84;;;25.63;83.56
6694;BME280;3384;42.628;23.380;2023-08-30T10:38:49;93352.44;;;25.77;84.09
6694;BME280;3384;42.628;23.380;2023-08-30T10:41:20;93365.44;;;26.00;81.48
6694;BME280;3384;42.628;23.380;2023-08-30T10:43:50;93371.34;;;25.95;81.62
6694;BME280;3384;42.628;23.380;2023-08-30T10:46:29;93360.13;;;25.63;80.50
6694;BME280;3384;42.628;23.380;2023-08-30T10:49:10;93360.00;;;25.70;79.68
6694;BME280;3384;42.628;23.380;2023-08-30T10:51:40;93364.06;;;25.62;79.98
6694;BME280;3384;42.628;23.380;2023-08-30T10:54:12;93376.50;;;25.93;77.45
6694;BME280;3384;42.628;23.380;2023-08-30T10:56:48;93369.97;;;25.60;78.22
6694;BME280;3384;42.628;23.380;2023-08-30T10:59:18;93360.72;;;25.74;77.93
6694;BME280;3384;42.628;23.380;2023-08-30T11:01:46;93359.81;;;25.80;77.93
6694;BME280;3384;42.628;23.380;2023-08-30T11:04:16;93355.00;;;25.88;78.57
6694;BME280;3384;42.628;23.380;2023-08-30T11:06:43;93356.31;;;26.03;77.38
6694;BME280;3384;42.628;23.380;2023-08-30T11:09:13;93356.81;;;26.21;77.34
6694;BME280;3384;42.628;23.380;2023-08-30T11:11:43;93354.06;;;26.21;76.00
6694;BME280;3384;42.628;23.380;2023-08-30T11:14:10;93361.81;;;25.80;76.34
6694;BME280;3384;42.628;23.380;2023-08-30T11:16:38;93351.13;;;25.85;76.04
6694;BME280;3384;42.628;23.380;2023-08-30T11:19:06;93358.34;;;25.99;74.52
6694;BME280;3384;42.628;23.380;2023-08-30T11:21:37;93362.25;;;26.01;75.39
6694;BME280;3384;42.628;23.380;2023-08-30T11:24:05;93350.63;;;25.90;76.40
6694;BME280;3384;42.628;23.380;2023-08-30T11:26:32;93345.31;;;26.26;75.29
6694;BME280;3384;42.628;23.380;2023-08-30T11:29:04;93336.09;;;26.36;75.07
6694;BME280;3384;42.628;23.380;2023-08-30T11:31:31;93344.66;;;26.18;72.35
6694;BME280;3384;42.628;23.380;2023-08-30T11:33:58;93340.50;;;26.10;72.86
6694;BME280;3384;42.628;23.380;2023-08-30T11:39:58;93320.97;;;26.28;70.70
6694;BME280;3384;42.628;23.380;2023-08-30T11:42:26;93323.56;;;26.35;70.88
6694;BME280;3384;42.628;23.380;2023-08-30T11:44:53;93327.03;;;26.39;71.67
6694;BME280;3384;42.628;23.380;2023-08-30T11:47:20;93324.03;;;26.30;72.73
6694;BME280;3384;42.628;23.380;2023-08-30T11:49:49;93295.53;;;26.24;73.29
6694;BME280;3384;42.628;23.380;2023-08-30T11:52:18;93303.53;;;26.54;72.24
6694;BME280;3384;42.628;23.380;2023-08-30T11:54:46;93328.41;;;26.70;70.68
6694;BME280;3384;42.628;23.380;2023-08-30T11:57:15;93307.91;;;26.32;71.08
6694;BME280;3384;42.628;23.380;2023-08-30T11:59:42;93310.66;;;26.32;72.88
6694;BME280;3384;42.628;23.380;2023-08-30T12:02:11;93305.44;;;26.57;73.06
6694;BME280;3384;42.628;23.380;2023-08-30T12:04:42;93304.53;;;26.44;71.25
6694;BME280;3384;42.628;23.380;2023-08-30T12:07:09;93305.28;;;26.68;71.17
6694;BME280;3384;42.628;23.380;2023-08-30T12:09:36;93302.84;;;26.89;69.60
6694;BME280;3384;42.628;23.380;2023-08-30T12:12:08;93291.97;;;26.82;69.30
6694;BME280;3384;42.628;23.380;2023-08-30T12:14:37;93309.53;;;26.88;69.92
6694;BME280;3384;42.628;23.380;2023-08-30T12:17:05;93299.75;;;26.87;69.30
6694;BME280;3384;42.628;23.380;2023-08-30T12:19:34;93306.88;;;26.85;69.03
6694;BME280;3384;42.628;23.380;2023-08-30T12:22:04;93301.88;;;26.60;67.62
6694;BME280;3384;42.628;23.380;2023-08-30T12:24:44;93292.66;;;27.06;68.39
6694;BME280;3384;42.628;23.380;2023-08-30T12:27:12;93281.94;;;26.76;66.94
6694;BME280;3384;42.628;23.380;2023-08-30T12:29:41;93303.94;;;27.11;66.72
6694;BME280;3384;42.628;23.380;2023-08-30T12:32:08;93279.03;;;27.34;65.87
6694;BME280;3384;42.628;23.380;2023-08-30T12:34:35;93277.09;;;27.51;66.77
6694;BME280;3384;42.628;23.380;2023-08-30T12:37:02;93276.53;;;27.24;66.73
6694;BME280;3384;42.628;23.380;2023-08-30T12:39:29;93279.44;;;27.17;64.80
6694;BME280;3384;42.628;23.380;2023-08-30T12:42:07;93264.56;;;27.14;63.61
6694;BME280;3384;42.628;23.380;2023-08-30T12:44:34;93272.66;;;27.21;63.39
6694;BME280;3384;42.628;23.380;2023-08-30T12:47:06;93270.41;;;27.16;63.31
6694;BME280;3384;42.628;23.380;2023-08-30T12:49:39;93261.84;;;26.95;63.53
6694;BME280;3384;42.628;23.380;2023-08-30T12:52:06;93261.28;;;27.19;63.45
6694;BME280;3384;42.628;23.380;2023-08-30T12:54:33;93245.50;;;27.23;62.61
6694;BME280;3384;42.628;23.380;2023-08-30T12:57:00;93272.00;;;27.33;60.92
6694;BME280;3384;42.628;23.380;2023-08-30T12:59:28;93256.53;;;27.39;59.89
6694;BME280;3384;42.628;23.380;2023-08-30T13:01:55;93254.75;;;27.13;60.78
6694;BME280;3384;42.628;23.380;2023-08-30T13:04:24;93251.94;;;27.49;59.66
6694;BME280;3384;42.628;23.380;2023-08-30T13:06:50;93249.69;;;27.60;60.01
6694;BME280;3384;42.628;23.380;2023-08-30T13:09:17;93255.66;;;27.42;59.91
6694;BME280;3384;42.628;23.380;2023-08-30T13:11:44;93256.88;;;27.25;60.31
6694;BME280;3384;42.628;23.380;2023-08-30T13:14:12;93245.84;;;27.41;59.95
6694;BME280;3384;42.628;23.380;2023-08-30T13:16:39;93249.41;;;27.06;61.26